Sedalia, Colorado
Current Conditions -  °F | °C
As of 9:53 PM on Wednesday 22 Oct 2014 (Local Time) from KAPA Reporting Station
Broken Clouds Broken Clouds  
Wind Chill: 52°   Ceiling: 12000
Heat Index: 52°   Visibility: 10mi
Dew Point: 40°   Wind: 6mph
Humidity: 63%   Direction: 120°ESE
Pressure: 30.16"   Gusts: NA
Location:  39.44°N, 104.96°W
Report Text: KAPA 230353Z 12005KT 10SM BKN120 11/04 A3016 RMK AO2 SLP178 T01110044
Loading
Personal Weather Stations






























Interactive Weather Map
Tropical Storm Tracking
New forecast layout! Learn more

10-Day Weather Forecast

Advertisements
Track Severe Weather on mobile